Time;durP1;ratioP1;P1;durP2;ratioP2;P2;SDS_P1;SDS_P2;PMS_P1;PMS_P2;Temp;Humidity;BMP_temperature;BMP_pressure;BME280_temperature;BME280_humidity;BME280_pressure;Samples;Min_cycle;Max_cycle;Signal;HPM_P1;HPM_P2
2023/06/02 00:01:49;;;;;;;6.30;4.47;;;;;;;;;;4835016;29;20709;-74
2023/06/02 00:04:23;;;;;;;8.30;5.25;;;;;;;;;;4835591;29;20486;-73
2023/06/02 00:06:55;;;;;;;8.57;4.57;;;;;;;;;;4835346;29;20057;-75
2023/06/02 00:09:25;;;;;;;7.45;4.35;;;;;;;;;;4835203;29;20054;-75
2023/06/02 00:11:55;;;;;;;8.63;4.65;;;;;;;;;;4835467;29;20050;-74
2023/06/02 00:14:26;;;;;;;7.50;4.28;;;;;;;;;;4835344;29;20058;-73
2023/06/02 00:17:02;;;;;;;7.32;4.65;;;;;;;;;;4835098;29;20064;-74
2023/06/02 00:19:32;;;;;;;12.20;5.88;;;;;;;;;;4834948;29;20061;-74
2023/06/02 00:22:09;;;;;;;19.23;13.02;;;;;;;;;;4835295;29;20050;-74
2023/06/02 00:24:41;;;;;;;17.00;11.40;;;;;;;;;;4835129;29;20061;-75
2023/06/02 00:27:11;;;;;;;17.75;11.55;;;;;;;;;;4829130;29;20038;-74
2023/06/02 00:29:42;;;;;;;19.33;9.10;;;;;;;;;;4830660;29;20058;-75
2023/06/02 00:32:14;;;;;;;18.98;9.85;;;;;;;;;;4816522;29;20077;-74
2023/06/02 00:34:44;;;;;;;14.48;8.10;;;;;;;;;;4816996;29;20062;-74
2023/06/02 00:37:15;;;;;;;12.20;6.78;;;;;;;;;;4816819;29;20054;-75
2023/06/02 00:39:48;;;;;;;16.30;6.30;;;;;;;;;;4816855;29;20077;-77
2023/06/02 00:42:20;;;;;;;11.90;6.10;;;;;;;;;;4816694;29;20069;-74
2023/06/02 00:44:50;;;;;;;12.18;7.18;;;;;;;;;;4816513;29;20046;-74
2023/06/02 00:47:21;;;;;;;12.35;6.60;;;;;;;;;;4816688;29;20046;-73
2023/06/02 00:49:52;;;;;;;12.70;5.53;;;;;;;;;;4816475;29;20061;-75
2023/06/02 00:52:25;;;;;;;8.10;6.18;;;;;;;;;;4829802;29;20061;-74
2023/06/02 00:54:56;;;;;;;14.52;6.22;;;;;;;;;;4816489;29;20050;-74
2023/06/02 00:57:34;;;;;;;10.07;6.00;;;;;;;;;;4816416;29;20050;-75
2023/06/02 01:00:06;;;;;;;19.45;8.10;;;;;;;;;;4816863;29;20514;-75
2023/06/02 01:02:37;;;;;;;8.85;5.65;;;;;;;;;;4830081;29;20390;-74
2023/06/02 01:05:10;;;;;;;14.05;5.25;;;;;;;;;;4829141;29;20058;-73
2023/06/02 01:07:44;;;;;;;11.35;5.32;;;;;;;;;;4816154;29;20392;-74
2023/06/02 01:10:16;;;;;;;10.45;5.22;;;;;;;;;;4829974;29;20058;-74
2023/06/02 01:12:48;;;;;;;9.48;4.25;;;;;;;;;;4814881;29;20069;-76
2023/06/02 01:15:18;;;;;;;15.65;5.07;;;;;;;;;;4830108;29;20054;-73
2023/06/02 01:17:51;;;;;;;9.77;5.70;;;;;;;;;;4816464;29;20047;-72
2023/06/02 01:20:23;;;;;;;13.13;4.88;;;;;;;;;;4816798;29;20069;-73
2023/06/02 01:23:18;;;;;;;8.68;4.28;;;;;;;;;;4823016;29;20533;-74
2023/06/02 01:25:53;;;;;;;10.32;4.32;;;;;;;;;;4832915;29;20774;-74
2023/06/02 01:28:26;;;;;;;9.43;5.10;;;;;;;;;;4823660;29;20055;-74
2023/06/02 01:31:09;;;;;;;5.72;3.85;;;;;;;;;;4837472;29;20065;-74
2023/06/02 01:34:00;;;;;;;8.10;4.68;;;;;;;;;;4822773;29;20043;-74
2023/06/02 01:36:32;;;;;;;6.18;4.07;;;;;;;;;;4810262;29;20059;-74
2023/06/02 01:39:07;;;;;;;6.82;4.60;;;;;;;;;;4815724;29;20427;-74
2023/06/02 01:41:43;;;;;;;7.43;4.97;;;;;;;;;;4816271;29;20047;-73
2023/06/02 01:44:14;;;;;;;7.25;4.78;;;;;;;;;;4816003;29;20065;-74
2023/06/02 01:46:45;;;;;;;8.15;4.55;;;;;;;;;;4815762;29;20061;-73
2023/06/02 01:49:18;;;;;;;7.57;4.93;;;;;;;;;;4829541;29;20066;-75
2023/06/02 01:51:49;;;;;;;8.45;4.28;;;;;;;;;;4817067;29;20078;-74
2023/06/02 01:54:21;;;;;;;7.15;5.40;;;;;;;;;;4819833;29;20050;-74
2023/06/02 01:56:51;;;;;;;8.35;5.10;;;;;;;;;;4819554;29;20046;-74
2023/06/02 01:59:22;;;;;;;8.25;4.97;;;;;;;;;;4817944;29;20066;-74
2023/06/02 02:01:53;;;;;;;9.48;5.43;;;;;;;;;;4818945;29;20062;-75
2023/06/02 02:04:23;;;;;;;6.55;4.47;;;;;;;;;;4819711;29;20058;-74
2023/06/02 02:06:54;;;;;;;8.35;5.13;;;;;;;;;;4819577;29;20050;-74
2023/06/02 02:09:24;;;;;;;5.78;4.20;;;;;;;;;;4819651;29;20062;-74
2023/06/02 02:11:55;;;;;;;6.45;4.35;;;;;;;;;;4820618;29;20062;-74
2023/06/02 02:14:27;;;;;;;9.30;4.90;;;;;;;;;;4819503;29;20046;-74
2023/06/02 02:17:00;;;;;;;12.65;5.65;;;;;;;;;;4817647;29;20062;-74
2023/06/02 02:19:31;;;;;;;7.95;4.75;;;;;;;;;;4819382;29;20054;-75
2023/06/02 02:22:01;;;;;;;8.45;5.28;;;;;;;;;;4832891;29;20059;-74
2023/06/02 02:24:32;;;;;;;10.68;4.75;;;;;;;;;;4817821;29;20435;-74
2023/06/02 02:27:10;;;;;;;8.43;4.30;;;;;;;;;;4818857;29;20046;-74
2023/06/02 02:29:41;;;;;;;6.30;4.13;;;;;;;;;;4818787;29;20058;-74
2023/06/02 02:32:11;;;;;;;8.30;5.30;;;;;;;;;;4832442;29;20451;-74
2023/06/02 02:34:45;;;;;;;7.65;4.88;;;;;;;;;;4819177;29;20418;-74
2023/06/02 02:37:17;;;;;;;6.97;4.10;;;;;;;;;;4818571;29;20864;-74
2023/06/02 02:39:50;;;;;;;11.35;5.15;;;;;;;;;;4818544;29;20066;-74
2023/06/02 02:42:20;;;;;;;7.95;5.28;;;;;;;;;;4818365;29;20050;-74
2023/06/02 02:44:51;;;;;;;7.35;4.43;;;;;;;;;;4832645;29;20411;-75
2023/06/02 02:47:24;;;;;;;7.88;5.03;;;;;;;;;;4818949;29;20051;-74
2023/06/02 02:49:55;;;;;;;8.40;5.28;;;;;;;;;;4832258;29;20069;-74
2023/06/02 02:52:27;;;;;;;9.40;4.95;;;;;;;;;;4832841;29;20062;-74
2023/06/02 02:54:58;;;;;;;10.93;4.80;;;;;;;;;;4818336;29;20058;-74
2023/06/02 02:57:32;;;;;;;11.27;5.30;;;;;;;;;;4818888;29;20047;-75
2023/06/02 03:00:05;;;;;;;6.82;4.53;;;;;;;;;;4818256;29;20053;-73
2023/06/02 03:02:35;;;;;;;9.98;4.93;;;;;;;;;;4818089;29;20062;-74
2023/06/02 03:05:08;;;;;;;9.20;4.93;;;;;;;;;;4832516;29;20058;-75
2023/06/02 03:07:39;;;;;;;9.68;5.60;;;;;;;;;;4818834;29;20065;-74
2023/06/02 03:10:09;;;;;;;9.30;4.88;;;;;;;;;;4818954;29;20050;-74
2023/06/02 03:12:41;;;;;;;6.30;4.57;;;;;;;;;;4831661;29;20069;-74
2023/06/02 03:15:13;;;;;;;7.53;4.85;;;;;;;;;;4817062;29;20061;-75
2023/06/02 03:17:45;;;;;;;17.30;6.28;;;;;;;;;;4831758;29;20082;-74
2023/06/02 03:20:16;;;;;;;9.32;5.60;;;;;;;;;;4831963;29;20242;-73
2023/06/02 03:22:51;;;;;;;7.65;5.47;;;;;;;;;;4816276;29;20065;-75
2023/06/02 03:25:22;;;;;;;7.70;4.18;;;;;;;;;;4831352;29;20054;-74
2023/06/02 03:27:56;;;;;;;6.13;4.68;;;;;;;;;;4832263;29;20061;-74
2023/06/02 03:30:27;;;;;;;7.13;5.25;;;;;;;;;;4831479;29;20058;-75
2023/06/02 03:33:00;;;;;;;8.32;5.53;;;;;;;;;;4831804;29;20062;-73
2023/06/02 03:35:31;;;;;;;8.50;4.22;;;;;;;;;;4818127;29;20074;-74
2023/06/02 03:38:05;;;;;;;5.93;4.10;;;;;;;;;;4831184;29;20370;-75
2023/06/02 03:40:35;;;;;;;9.45;4.70;;;;;;;;;;4817982;29;20054;-73
2023/06/02 03:43:05;;;;;;;7.50;4.65;;;;;;;;;;4831503;29;20058;-74
2023/06/02 03:45:36;;;;;;;7.35;5.40;;;;;;;;;;4831672;29;20069;-74
2023/06/02 03:48:07;;;;;;;7.25;5.25;;;;;;;;;;4817756;29;20050;-73
2023/06/02 03:50:38;;;;;;;8.13;5.10;;;;;;;;;;4817688;29;20511;-74
2023/06/02 03:53:10;;;;;;;11.75;5.55;;;;;;;;;;4830756;29;20069;-74
2023/06/02 03:55:40;;;;;;;7.93;5.45;;;;;;;;;;4830758;29;20058;-74
2023/06/02 03:58:12;;;;;;;9.35;6.18;;;;;;;;;;4817737;29;20054;-73
2023/06/02 04:00:44;;;;;;;8.75;5.15;;;;;;;;;;4817221;29;20515;-73
2023/06/02 04:03:16;;;;;;;8.02;5.65;;;;;;;;;;4818207;29;20058;-74
2023/06/02 04:05:50;;;;;;;5.93;3.53;;;;;;;;;;4831591;29;20061;-74
2023/06/02 04:08:21;;;;;;;4.07;3.30;;;;;;;;;;4830643;29;20058;-73
2023/06/02 04:10:52;;;;;;;10.38;4.85;;;;;;;;;;4830820;29;20066;-74
2023/06/02 04:13:23;;;;;;;6.60;4.78;;;;;;;;;;4815240;29;20519;-75
2023/06/02 04:15:53;;;;;;;6.00;4.57;;;;;;;;;;4817565;29;20076;-74
2023/06/02 04:18:23;;;;;;;7.72;5.18;;;;;;;;;;4831162;29;20062;-75
2023/06/02 04:20:54;;;;;;;9.65;5.03;;;;;;;;;;4830559;29;20050;-74
2023/06/02 04:23:25;;;;;;;6.43;4.45;;;;;;;;;;4816014;29;20058;-74
2023/06/02 04:25:56;;;;;;;8.35;5.05;;;;;;;;;;4830735;29;20063;-74
2023/06/02 04:28:28;;;;;;;12.50;5.60;;;;;;;;;;4815937;29;20230;-73
2023/06/02 04:31:01;;;;;;;7.85;5.15;;;;;;;;;;4815233;29;20081;-74
2023/06/02 04:33:37;;;;;;;7.95;5.13;;;;;;;;;;4815638;29;20065;-74
2023/06/02 04:36:10;;;;;;;6.97;5.07;;;;;;;;;;4830556;29;20054;-74
2023/06/02 04:38:45;;;;;;;7.53;5.13;;;;;;;;;;4831323;29;20058;-74
2023/06/02 04:41:17;;;;;;;7.60;5.22;;;;;;;;;;4830726;29;20085;-74
2023/06/02 04:43:48;;;;;;;9.90;4.78;;;;;;;;;;4829912;29;20070;-74
2023/06/02 04:46:19;;;;;;;7.65;4.80;;;;;;;;;;4830311;29;20526;-75
2023/06/02 04:48:49;;;;;;;7.03;3.95;;;;;;;;;;4817473;29;20050;-74
2023/06/02 04:51:26;;;;;;;8.00;4.80;;;;;;;;;;4817315;29;20046;-73
2023/06/02 04:53:58;;;;;;;11.20;4.03;;;;;;;;;;4815561;29;20062;-74
2023/06/02 04:56:30;;;;;;;7.30;4.80;;;;;;;;;;4815992;29;20058;-74
2023/06/02 04:59:01;;;;;;;7.90;5.13;;;;;;;;;;4815047;29;20458;-74
2023/06/02 05:01:33;;;;;;;8.63;4.65;;;;;;;;;;4830417;29;20058;-74
2023/06/02 05:04:05;;;;;;;9.40;5.07;;;;;;;;;;4816934;29;20054;-74
2023/06/02 05:06:36;;;;;;;7.40;5.55;;;;;;;;;;4830611;29;20050;-74
2023/06/02 05:09:08;;;;;;;7.85;5.22;;;;;;;;;;4830263;29;20054;-74
2023/06/02 05:11:39;;;;;;;7.78;4.80;;;;;;;;;;4816433;29;20075;-74
2023/06/02 05:14:11;;;;;;;8.05;4.95;;;;;;;;;;4816931;29;20050;-74
2023/06/02 05:16:44;;;;;;;6.22;4.32;;;;;;;;;;4816607;29;20050;-74
2023/06/02 05:19:14;;;;;;;7.15;4.07;;;;;;;;;;4814878;29;20062;-74
2023/06/02 05:21:45;;;;;;;8.63;5.32;;;;;;;;;;4815944;29;20538;-74
2023/06/02 05:24:16;;;;;;;11.20;4.43;;;;;;;;;;4815130;29;20059;-74
2023/06/02 05:26:47;;;;;;;5.55;4.00;;;;;;;;;;4819281;29;20050;-74
2023/06/02 05:29:18;;;;;;;15.45;4.18;;;;;;;;;;4834197;29;20070;-74
2023/06/02 05:31:49;;;;;;;7.85;5.28;;;;;;;;;;4819445;29;20431;-74
2023/06/02 05:34:21;;;;;;;7.80;5.00;;;;;;;;;;4819552;29;20070;-74
2023/06/02 05:36:51;;;;;;;8.80;4.90;;;;;;;;;;4820141;29;20053;-74
2023/06/02 05:39:21;;;;;;;6.00;4.68;;;;;;;;;;4819920;29;20050;-74
2023/06/02 05:41:52;;;;;;;9.68;5.60;;;;;;;;;;4833206;29;20065;-74
2023/06/02 05:44:22;;;;;;;6.95;4.72;;;;;;;;;;4833080;29;20062;-74
2023/06/02 05:46:54;;;;;;;6.63;4.18;;;;;;;;;;4818354;29;20430;-74
2023/06/02 05:49:24;;;;;;;8.30;5.10;;;;;;;;;;4833137;29;20074;-74
2023/06/02 05:51:54;;;;;;;6.57;4.40;;;;;;;;;;4817849;29;20088;-75
2023/06/02 05:54:25;;;;;;;6.93;4.88;;;;;;;;;;4818013;29;20058;-74
2023/06/02 05:56:56;;;;;;;6.32;4.30;;;;;;;;;;4818419;29;20058;-74
2023/06/02 05:59:28;;;;;;;7.57;4.28;;;;;;;;;;4833477;29;20066;-74
2023/06/02 06:01:59;;;;;;;7.03;4.43;;;;;;;;;;4833680;29;20058;-74
2023/06/02 06:04:30;;;;;;;7.38;4.15;;;;;;;;;;4819496;29;20058;-74
2023/06/02 06:07:01;;;;;;;7.68;5.53;;;;;;;;;;4832739;29;20549;-75
2023/06/02 06:09:32;;;;;;;7.72;4.78;;;;;;;;;;4832422;29;20058;-74
2023/06/02 06:12:05;;;;;;;7.35;5.18;;;;;;;;;;4832611;29;20403;-74
2023/06/02 06:14:37;;;;;;;6.18;4.72;;;;;;;;;;4833011;29;20065;-74
2023/06/02 06:17:07;;;;;;;7.90;4.35;;;;;;;;;;4833108;29;20051;-75
2023/06/02 06:19:37;;;;;;;9.07;4.88;;;;;;;;;;4818038;29;20542;-75
2023/06/02 06:22:09;;;;;;;9.27;5.00;;;;;;;;;;4833079;29;20073;-74
2023/06/02 06:24:41;;;;;;;7.25;4.75;;;;;;;;;;4819258;29;20063;-74
2023/06/02 06:27:12;;;;;;;6.45;4.10;;;;;;;;;;4817918;29;20062;-74
2023/06/02 06:29:43;;;;;;;6.72;4.78;;;;;;;;;;4832826;29;20423;-75
2023/06/02 06:32:15;;;;;;;6.25;3.33;;;;;;;;;;4817653;29;20073;-74
2023/06/02 06:34:46;;;;;;;5.65;3.65;;;;;;;;;;4833020;29;20058;-74
2023/06/02 06:37:19;;;;;;;6.90;3.80;;;;;;;;;;4832299;29;20058;-74
2023/06/02 06:39:50;;;;;;;5.35;3.80;;;;;;;;;;4816995;29;20061;-74
2023/06/02 06:42:22;;;;;;;7.55;4.18;;;;;;;;;;4832479;29;20093;-74
2023/06/02 06:45:09;;;;;;;7.60;4.50;;;;;;;;;;4816393;29;20430;-74
2023/06/02 06:47:39;;;;;;;6.80;3.78;;;;;;;;;;4832721;29;20070;-74
2023/06/02 06:50:14;;;;;;;5.97;4.07;;;;;;;;;;4832639;29;20058;-74
2023/06/02 06:52:50;;;;;;;6.03;4.57;;;;;;;;;;4818892;29;20050;-74
2023/06/02 06:55:20;;;;;;;6.38;4.13;;;;;;;;;;4818611;29;20418;-74
2023/06/02 06:57:52;;;;;;;6.43;4.00;;;;;;;;;;4832048;29;20058;-74
2023/06/02 07:00:22;;;;;;;9.48;4.10;;;;;;;;;;4818340;29;20499;-74
2023/06/02 07:02:52;;;;;;;5.90;4.30;;;;;;;;;;4832149;29;20058;-74
2023/06/02 07:05:23;;;;;;;5.57;3.72;;;;;;;;;;4818393;29;20062;-74
2023/06/02 07:07:54;;;;;;;5.30;3.78;;;;;;;;;;4818186;29;20411;-74
2023/06/02 07:10:24;;;;;;;5.72;4.00;;;;;;;;;;4818686;29;20051;-74
2023/06/02 07:12:55;;;;;;;6.10;4.25;;;;;;;;;;4818042;29;20077;-73
2023/06/02 07:15:26;;;;;;;5.25;3.90;;;;;;;;;;4818191;29;20065;-74
2023/06/02 07:17:56;;;;;;;7.22;3.85;;;;;;;;;;4818459;29;20486;-75
2023/06/02 07:20:26;;;;;;;6.30;4.18;;;;;;;;;;4818090;29;20058;-74
2023/06/02 07:22:57;;;;;;;7.97;4.65;;;;;;;;;;4817986;29;20054;-74
2023/06/02 07:25:28;;;;;;;6.57;4.03;;;;;;;;;;4818435;29;20062;-75
2023/06/02 07:27:58;;;;;;;9.23;5.10;;;;;;;;;;4818314;29;20062;-75
2023/06/02 07:30:28;;;;;;;7.40;4.30;;;;;;;;;;4817803;29;20062;-74
2023/06/02 07:33:00;;;;;;;6.68;4.65;;;;;;;;;;4817780;29;20085;-75
2023/06/02 07:35:31;;;;;;;7.32;4.60;;;;;;;;;;4817565;29;20471;-75
2023/06/02 07:38:00;;;;;;;5.30;3.53;;;;;;;;;;4817815;29;20057;-74
2023/06/02 07:40:31;;;;;;;6.75;4.40;;;;;;;;;;4817977;29;20054;-75
2023/06/02 07:43:02;;;;;;;6.03;4.30;;;;;;;;;;4820179;29;20478;-74
2023/06/02 07:45:34;;;;;;;6.95;3.83;;;;;;;;;;4817750;29;20057;-74
2023/06/02 07:48:05;;;;;;;5.57;3.85;;;;;;;;;;4816852;29;20046;-74
2023/06/02 07:50:35;;;;;;;6.47;4.28;;;;;;;;;;4817352;29;20054;-74
2023/06/02 07:53:05;;;;;;;6.63;4.32;;;;;;;;;;4830852;29;20058;-75
2023/06/02 07:55:35;;;;;;;;;;;;;;;;;;4818042;29;20057;-74
2023/06/02 07:58:06;;;;;;;4.72;3.70;;;;;;;;;;4817703;29;19929;-73
2023/06/02 08:00:38;;;;;;;5.00;3.60;;;;;;;;;;4817901;29;20061;-74
2023/06/02 08:03:08;;;;;;;7.88;3.88;;;;;;;;;;4817768;29;20046;-74
2023/06/02 08:05:38;;;;;;;5.85;3.13;;;;;;;;;;4817822;29;20541;-74
2023/06/02 08:08:09;;;;;;;;;;;;;;;;;;4817797;29;20051;-75
2023/06/02 08:10:42;;;;;;;5.72;3.78;;;;;;;;;;4817130;29;19936;-75
2023/06/02 08:13:15;;;;;;;6.20;3.83;;;;;;;;;;4817027;29;20651;-74
2023/06/02 08:15:47;;;;;;;5.18;3.75;;;;;;;;;;4817821;29;20396;-75
2023/06/02 08:18:38;;;;;;;12.13;4.07;;;;;;;;;;4817289;29;20816;-74
2023/06/02 08:21:09;;;;;;;3.95;3.38;;;;;;;;;;4817079;29;20065;-74
2023/06/02 08:23:39;;;;;;;4.63;3.30;;;;;;;;;;4817195;29;20057;-74
2023/06/02 08:26:09;;;;;;;4.15;2.72;;;;;;;;;;4817682;29;20055;-73
2023/06/02 08:28:41;;;;;;;4.68;3.53;;;;;;;;;;4818201;29;20061;-74
2023/06/02 08:31:12;;;;;;;6.60;4.15;;;;;;;;;;4816837;29;20521;-74
2023/06/02 08:33:43;;;;;;;7.07;3.95;;;;;;;;;;4816967;29;20062;-74
2023/06/02 08:36:17;;;;;;;5.55;3.58;;;;;;;;;;4817045;29;20065;-74
2023/06/02 08:38:51;;;;;;;7.28;4.00;;;;;;;;;;4816812;29;20049;-75
2023/06/02 08:41:25;;;;;;;7.07;3.85;;;;;;;;;;4816590;29;20061;-74
2023/06/02 08:43:57;;;;;;;6.47;3.47;;;;;;;;;;4816641;29;20058;-76
2023/06/02 08:46:27;;;;;;;6.05;3.58;;;;;;;;;;4817100;29;20061;-74
2023/06/02 08:49:00;;;;;;;5.43;3.40;;;;;;;;;;4817006;29;20518;-74
2023/06/02 08:51:36;;;;;;;7.93;4.20;;;;;;;;;;4816888;29;20054;-74
2023/06/02 08:54:11;;;;;;;6.85;4.30;;;;;;;;;;4817165;29;20050;-75
2023/06/02 08:56:44;;;;;;;6.35;3.85;;;;;;;;;;4816614;29;20061;-74
2023/06/02 08:59:15;;;;;;;6.07;3.97;;;;;;;;;;4817167;29;20388;-75
2023/06/02 09:01:47;;;;;;;12.68;4.38;;;;;;;;;;4816595;29;20058;-74
2023/06/02 09:04:17;;;;;;;8.02;4.18;;;;;;;;;;4816871;29;20526;-74
2023/06/02 09:06:50;;;;;;;5.22;3.35;;;;;;;;;;4830186;29;20085;-75
2023/06/02 09:09:21;;;;;;;5.72;3.70;;;;;;;;;;4816667;29;20054;-74
2023/06/02 09:11:59;;;;;;;5.45;3.47;;;;;;;;;;4829972;29;20057;-75
2023/06/02 09:14:30;;;;;;;10.15;3.50;;;;;;;;;;4816700;29;21185;-75
2023/06/02 09:17:00;;;;;;;6.47;3.83;;;;;;;;;;4816711;29;20703;-74
2023/06/02 09:19:55;;;;;;;5.18;3.53;;;;;;;;;;4816655;29;20061;-74
2023/06/02 09:22:25;;;;;;;;;;;;;;;;;;4830395;29;20518;-75
2023/06/02 09:24:55;;;;;;;8.80;5.53;;;;;;;;;;4816654;29;19928;-75
2023/06/02 09:27:26;;;;;;;14.10;5.45;;;;;;;;;;4816321;29;20066;-74
2023/06/02 09:30:01;;;;;;;9.32;4.40;;;;;;;;;;4815987;29;20439;-73
2023/06/02 09:32:36;;;;;;;15.07;5.20;;;;;;;;;;4816371;29;20058;-74
2023/06/02 09:35:36;;;;;;;9.82;4.80;;;;;;;;;;4816364;29;20054;-75
2023/06/02 09:38:10;;;;;;;6.57;4.32;;;;;;;;;;4816216;29;20511;-76
2023/06/02 09:40:41;;;;;;;6.35;4.00;;;;;;;;;;4816926;29;20055;-75
2023/06/02 09:43:16;;;;;;;7.07;3.50;;;;;;;;;;4816693;29;20065;-75
2023/06/02 09:45:49;;;;;;;7.60;4.03;;;;;;;;;;4815830;29;20081;-74
2023/06/02 09:48:27;;;;;;;7.22;4.10;;;;;;;;;;4816071;29;20055;-74
2023/06/02 09:50:58;;;;;;;7.30;4.05;;;;;;;;;;4816144;29;20058;-75
2023/06/02 09:53:29;;;;;;;;;;;;;;;;;;4816825;29;20057;-75
2023/06/02 09:56:02;;;;;;;8.10;4.20;;;;;;;;;;4816200;29;19928;-75
2023/06/02 09:58:32;;;;;;;6.50;4.47;;;;;;;;;;4816579;29;20050;-77
2023/06/02 10:01:03;;;;;;;7.13;4.68;;;;;;;;;;4816213;29;20121;-74
2023/06/02 10:03:35;;;;;;;7.00;4.60;;;;;;;;;;4816500;29;20077;-75
2023/06/02 10:06:13;;;;;;;7.80;4.07;;;;;;;;;;4815693;29;20058;-73
2023/06/02 10:08:56;;;;;;;6.05;4.32;;;;;;;;;;4829445;29;20058;-74
2023/06/02 10:11:38;;;;;;;6.03;4.20;;;;;;;;;;4816395;29;20065;-74
2023/06/02 10:14:34;;;;;;;6.68;3.72;;;;;;;;;;4819570;29;20047;-74
2023/06/02 10:17:42;;;;;;;9.85;4.32;;;;;;;;;;4819211;29;20054;-76
2023/06/02 10:20:24;;;;;;;12.80;4.30;;;;;;;;;;4818973;29;20722;-77
2023/06/02 10:23:13;;;;;;;9.23;3.63;;;;;;;;;;4829945;29;20421;-77
2023/06/02 10:26:13;;;;;;;10.85;4.50;;;;;;;;;;4850829;29;20518;-75
2023/06/02 10:28:44;;;;;;;7.55;3.88;;;;;;;;;;4837919;29;20598;-75
2023/06/02 10:31:15;;;;;;;9.35;3.97;;;;;;;;;;4837452;29;20062;-75
2023/06/02 10:33:48;;;;;;;10.20;3.17;;;;;;;;;;4837614;29;20050;-77
2023/06/02 10:36:19;;;;;;;6.32;3.30;;;;;;;;;;4837093;29;20522;-78
2023/06/02 10:38:49;;;;;;;4.50;3.10;;;;;;;;;;4837332;29;20433;-75
2023/06/02 10:41:21;;;;;;;6.35;4.93;;;;;;;;;;4837169;29;20053;-77
2023/06/02 10:44:24;;;;;;;11.55;5.07;;;;;;;;;;4834781;29;20069;-75
2023/06/02 10:47:19;;;;;;;13.95;4.93;;;;;;;;;;4836896;29;20062;-75
2023/06/02 10:49:57;;;;;;;18.45;5.65;;;;;;;;;;4836900;29;20054;-76
2023/06/02 10:52:30;;;;;;;15.93;5.10;;;;;;;;;;4836959;29;20054;-76
2023/06/02 10:55:14;;;;;;;11.38;5.00;;;;;;;;;;4836568;29;21145;-78
2023/06/02 10:58:03;;;;;;;8.40;5.20;;;;;;;;;;4850714;29;20062;-75
2023/06/02 11:00:43;;;;;;;6.80;3.95;;;;;;;;;;4836140;29;20057;-75
2023/06/02 11:03:22;;;;;;;15.55;6.40;;;;;;;;;;4836560;29;20054;-76
2023/06/02 11:06:16;;;;;;;8.07;5.13;;;;;;;;;;4836803;29;20050;-76
2023/06/02 11:08:47;;;;;;;9.77;5.43;;;;;;;;;;4836894;29;20046;-77
2023/06/02 11:11:52;;;;;;;17.42;5.40;;;;;;;;;;4850561;29;20054;-75
2023/06/02 11:14:23;;;;;;;13.25;4.80;;;;;;;;;;4835129;29;20062;-76
2023/06/02 11:17:47;;;;;;;13.90;4.03;;;;;;;;;;4837095;29;20058;-75
2023/06/02 11:20:18;;;;;;;;;;;;;;;;;;4834041;29;20553;-76
2023/06/02 11:22:51;;;;;;;14.85;5.32;;;;;;;;;;4834881;29;19928;-74
2023/06/02 11:25:22;;;;;;;14.70;5.25;;;;;;;;;;4835614;29;20060;-76
2023/06/02 11:27:52;;;;;;;11.80;4.85;;;;;;;;;;4836161;29;20054;-74
2023/06/02 11:30:25;;;;;;;13.32;8.07;;;;;;;;;;4836209;29;20053;-75
2023/06/02 11:32:56;;;;;;;15.10;5.72;;;;;;;;;;4836044;29;20399;-74
2023/06/02 11:35:27;;;;;;;6.70;5.70;;;;;;;;;;4849671;29;20061;-76
2023/06/02 11:38:06;;;;;;;9.80;5.55;;;;;;;;;;4835910;29;20078;-75
2023/06/02 11:40:37;;;;;;;7.60;5.88;;;;;;;;;;4835054;29;20050;-77
2023/06/02 11:43:08;;;;;;;8.45;5.60;;;;;;;;;;4834425;29;20058;-74
2023/06/02 11:45:38;;;;;;;7.15;5.18;;;;;;;;;;4835135;29;20057;-72
2023/06/02 11:48:12;;;;;;;8.98;4.03;;;;;;;;;;4835206;29;20414;-73
2023/06/02 11:50:53;;;;;;;6.53;4.57;;;;;;;;;;4834545;29;20053;-76
2023/06/02 11:53:24;;;;;;;;;;;;;;;;;;4835092;29;20053;-74
2023/06/02 11:55:54;;;;;;;4.85;3.25;;;;;;;;;;4835357;29;19928;-75
2023/06/02 11:58:27;;;;;;;12.80;3.92;;;;;;;;;;4835568;29;20069;-73
2023/06/02 12:01:09;;;;;;;9.65;4.20;;;;;;;;;;4849695;29;20069;-83
2023/06/02 12:04:01;;;;;;;9.45;4.20;;;;;;;;;;4835615;29;20430;-75
2023/06/02 12:06:40;;;;;;;9.15;4.07;;;;;;;;;;4849404;29;20392;-74
2023/06/02 12:09:15;;;;;;;8.13;4.10;;;;;;;;;;4836089;29;20529;-73
2023/06/02 12:11:46;;;;;;;18.23;4.80;;;;;;;;;;4835517;29;20046;-73
2023/06/02 12:14:17;;;;;;;7.88;3.78;;;;;;;;;;4835501;29;20046;-73
2023/06/02 12:17:03;;;;;;;7.10;3.75;;;;;;;;;;4848985;29;20410;-74
2023/06/02 12:19:33;;;;;;;11.85;6.43;;;;;;;;;;4835148;29;20061;-75
2023/06/02 12:22:10;;;;;;;6.45;3.22;;;;;;;;;;4835426;29;20054;-76
2023/06/02 12:24:44;;;;;;;6.72;4.00;;;;;;;;;;4834886;29;20061;-74
2023/06/02 12:27:22;;;;;;;6.32;3.42;;;;;;;;;;4848780;29;20073;-74
2023/06/02 12:29:54;;;;;;;6.53;3.42;;;;;;;;;;4835110;29;20065;-76
2023/06/02 12:32:27;;;;;;;8.07;3.45;;;;;;;;;;4835171;29;20470;-75
2023/06/02 12:34:58;;;;;;;9.65;2.75;;;;;;;;;;4848993;29;20514;-75
2023/06/02 12:37:29;;;;;;;11.57;3.33;;;;;;;;;;4835184;29;20544;-74
2023/06/02 12:40:00;;;;;;;10.05;3.05;;;;;;;;;;4834905;29;20054;-75
2023/06/02 12:42:30;;;;;;;21.02;4.30;;;;;;;;;;4834694;29;20679;-74
2023/06/02 12:45:00;;;;;;;10.38;3.33;;;;;;;;;;4834564;29;20054;-74
2023/06/02 12:47:31;;;;;;;5.57;2.97;;;;;;;;;;4835450;29;20053;-74
2023/06/02 12:50:05;;;;;;;4.10;2.70;;;;;;;;;;4835220;29;20073;-73
2023/06/02 12:52:36;;;;;;;6.75;3.88;;;;;;;;;;4835201;29;20054;-73
2023/06/02 12:55:06;;;;;;;3.42;2.90;;;;;;;;;;4834827;29;20438;-74
2023/06/02 12:57:38;;;;;;;4.25;2.45;;;;;;;;;;4835288;29;20050;-74
2023/06/02 13:00:10;;;;;;;11.13;2.95;;;;;;;;;;4834576;29;20046;-75
2023/06/02 13:02:41;;;;;;;3.92;2.67;;;;;;;;;;4848687;29;20045;-75
2023/06/02 13:05:12;;;;;;;6.60;2.72;;;;;;;;;;4835066;29;20426;-75
2023/06/02 13:07:43;;;;;;;13.88;3.08;;;;;;;;;;4834417;29;20054;-75
2023/06/02 13:10:14;;;;;;;3.03;2.35;;;;;;;;;;4834827;29;20058;-79
2023/06/02 13:12:45;;;;;;;8.57;2.90;;;;;;;;;;4834471;29;20065;-76
2023/06/02 13:15:14;;;;;;;8.27;2.95;;;;;;;;;;4834630;29;20058;-77
2023/06/02 13:17:45;;;;;;;11.75;3.65;;;;;;;;;;4834133;29;20653;-74
2023/06/02 13:20:17;;;;;;;16.02;4.57;;;;;;;;;;4834753;29;20061;-75
2023/06/02 13:22:48;;;;;;;7.95;2.85;;;;;;;;;;4834799;29;20078;-78
2023/06/02 13:25:18;;;;;;;8.05;3.03;;;;;;;;;;4834719;29;20056;-75
2023/06/02 13:27:48;;;;;;;5.40;2.85;;;;;;;;;;4834145;29;20054;-74
2023/06/02 13:30:20;;;;;;;5.82;2.72;;;;;;;;;;4834432;29;20062;-75
2023/06/02 13:32:51;;;;;;;9.80;3.58;;;;;;;;;;4834448;29;20064;-74
2023/06/02 13:35:21;;;;;;;7.97;2.88;;;;;;;;;;4834626;29;20053;-74
2023/06/02 13:37:52;;;;;;;17.15;3.95;;;;;;;;;;4834713;29;20049;-77
2023/06/02 13:40:28;;;;;;;7.97;2.40;;;;;;;;;;4834304;29;20065;-75
2023/06/02 13:42:59;;;;;;;9.18;2.83;;;;;;;;;;4834797;29;20434;-75
2023/06/02 13:45:30;;;;;;;4.75;2.20;;;;;;;;;;4833986;29;20062;-74
2023/06/02 13:48:00;;;;;;;7.63;2.42;;;;;;;;;;4836750;29;20434;-74
2023/06/02 13:50:32;;;;;;;4.50;2.10;;;;;;;;;;4852098;29;20061;-75
2023/06/02 13:53:04;;;;;;;5.55;2.10;;;;;;;;;;4838053;29;20502;-75
2023/06/02 13:55:34;;;;;;;5.78;2.03;;;;;;;;;;4837818;29;20042;-78
2023/06/02 13:58:04;;;;;;;8.32;2.08;;;;;;;;;;4837886;29;20422;-74
2023/06/02 14:00:36;;;;;;;5.13;2.08;;;;;;;;;;4837389;29;20561;-75
2023/06/02 14:03:08;;;;;;;17.45;3.72;;;;;;;;;;4837187;29;20445;-74
2023/06/02 14:05:40;;;;;;;5.40;2.05;;;;;;;;;;4851225;29;20069;-74
2023/06/02 14:08:16;;;;;;;6.47;2.22;;;;;;;;;;4837224;29;20046;-73
2023/06/02 14:10:47;;;;;;;7.38;1.90;;;;;;;;;;4837849;29;20061;-77
2023/06/02 14:13:18;;;;;;;4.50;2.95;;;;;;;;;;4837931;29;20050;-74
2023/06/02 14:15:48;;;;;;;11.98;2.65;;;;;;;;;;4837450;29;20057;-82
2023/06/02 14:18:20;;;;;;;3.80;2.00;;;;;;;;;;4837091;29;20083;-75
2023/06/02 14:20:51;;;;;;;5.28;1.88;;;;;;;;;;4837339;29;20050;-74
2023/06/02 14:23:24;;;;;;;14.32;1.80;;;;;;;;;;4837718;29;20054;-80
2023/06/02 14:25:54;;;;;;;6.80;1.83;;;;;;;;;;4837137;29;20065;-75
2023/06/02 14:28:26;;;;;;;4.25;1.83;;;;;;;;;;4837407;29;20061;-76
2023/06/02 14:30:56;;;;;;;4.25;1.65;;;;;;;;;;4837226;29;20064;-75
2023/06/02 14:33:27;;;;;;;3.78;1.77;;;;;;;;;;4837358;29;20054;-75
2023/06/02 14:35:57;;;;;;;5.93;2.15;;;;;;;;;;4836449;29;20057;-75
2023/06/02 14:38:28;;;;;;;5.90;2.38;;;;;;;;;;4836645;29;20062;-75
2023/06/02 14:40:57;;;;;;;6.03;1.90;;;;;;;;;;4837287;29;20431;-74
2023/06/02 14:43:29;;;;;;;8.20;1.40;;;;;;;;;;4836797;29;20414;-74
2023/06/02 14:45:59;;;;;;;2.15;1.55;;;;;;;;;;4837569;29;20037;-76
2023/06/02 14:48:30;;;;;;;5.10;1.67;;;;;;;;;;4836619;29;20061;-74
2023/06/02 14:51:00;;;;;;;3.30;1.95;;;;;;;;;;4836706;29;20061;-75
2023/06/02 14:53:35;;;;;;;5.88;2.17;;;;;;;;;;4837167;29;20050;-75
2023/06/02 14:56:07;;;;;;;4.90;2.05;;;;;;;;;;4851504;29;20070;-75
2023/06/02 14:58:39;;;;;;;4.18;1.88;;;;;;;;;;4836554;29;20061;-74
2023/06/02 15:01:09;;;;;;;3.38;2.33;;;;;;;;;;4836496;29;20057;-73
2023/06/02 15:03:41;;;;;;;5.38;1.83;;;;;;;;;;4850306;29;20065;-73
2023/06/02 15:06:13;;;;;;;4.93;2.53;;;;;;;;;;4836696;29;20067;-74
2023/06/02 15:08:44;;;;;;;9.38;2.47;;;;;;;;;;4836519;29;20054;-74
2023/06/02 15:11:14;;;;;;;3.55;2.00;;;;;;;;;;4836838;29;20090;-74
2023/06/02 15:13:46;;;;;;;4.80;1.75;;;;;;;;;;4836738;29;20061;-74
2023/06/02 15:16:16;;;;;;;2.70;1.80;;;;;;;;;;4836725;29;20679;-74
2023/06/02 15:18:47;;;;;;;5.90;2.28;;;;;;;;;;4836926;29;20062;-75